createdAt,value
2023-04-15T00:00:56.453Z,22.48
2023-04-15T00:03:23.690Z,20.52
2023-04-15T00:05:50.148Z,22.25
2023-04-15T00:08:16.438Z,17.52
2023-04-15T00:10:44.348Z,16.50
2023-04-15T00:13:11.060Z,16.17
2023-04-15T00:15:37.745Z,24.73
2023-04-15T00:18:04.707Z,16.88
2023-04-15T00:20:31.516Z,17.98
2023-04-15T00:22:58.726Z,18.33
2023-04-15T00:25:25.022Z,11.70
2023-04-15T00:27:51.276Z,14.13
2023-04-15T00:30:17.666Z,17.05
2023-04-15T00:32:44.640Z,21.23
2023-04-15T00:35:11.234Z,11.70
2023-04-15T00:37:37.537Z,14.70
2023-04-15T00:40:06.304Z,14.57
2023-04-15T00:42:33.047Z,11.30
2023-04-15T00:44:59.310Z,13.10
2023-04-15T00:47:26.255Z,17.30
2023-04-15T00:49:52.773Z,19.35
2023-04-15T00:52:19.317Z,8.45
2023-04-15T00:54:45.654Z,16.60
2023-04-15T00:57:11.983Z,11.95
2023-04-15T00:59:38.364Z,9.40
2023-04-15T01:02:05.575Z,13.32
2023-04-15T01:04:32.613Z,12.55
2023-04-15T01:06:59.324Z,13.75
2023-04-15T01:09:25.637Z,12.82
2023-04-15T01:11:52.566Z,12.20
2023-04-15T01:14:19.354Z,14.65
2023-04-15T01:16:45.995Z,13.82
2023-04-15T01:19:14.392Z,11.93
2023-04-15T01:21:40.980Z,13.23
2023-04-15T01:24:09.075Z,15.23
2023-04-15T01:26:36.025Z,13.85
2023-04-15T01:29:02.650Z,11.02
2023-04-15T01:31:29.273Z,14.80
2023-04-15T01:33:55.638Z,12.60
2023-04-15T01:36:22.083Z,11.75
2023-04-15T01:38:48.800Z,11.27
2023-04-15T01:41:15.108Z,16.88
2023-04-15T01:43:41.725Z,12.30
2023-04-15T01:46:08.451Z,13.85
2023-04-15T01:48:34.834Z,9.32
2023-04-15T01:51:01.347Z,13.57
2023-04-15T01:53:28.138Z,12.48
2023-04-15T01:55:54.391Z,16.38
2023-04-15T01:58:20.795Z,15.27
2023-04-15T02:00:47.121Z,11.00
2023-04-15T02:03:13.620Z,15.85
2023-04-15T02:05:39.974Z,13.32
2023-04-15T02:08:06.238Z,9.20
2023-04-15T02:10:32.617Z,13.45
2023-04-15T02:12:58.941Z,13.18
2023-04-15T02:15:25.427Z,7.95
2023-04-15T02:17:52.727Z,10.75
2023-04-15T02:20:19.988Z,12.13
2023-04-15T02:22:47.357Z,20.10
2023-04-15T02:25:14.100Z,13.93
2023-04-15T02:27:40.693Z,13.00
2023-04-15T02:30:07.594Z,10.93
2023-04-15T02:32:33.972Z,14.07
2023-04-15T02:35:07.589Z,15.50
2023-04-15T02:37:37.107Z,10.85
2023-04-15T02:40:05.022Z,11.30
2023-04-15T02:42:32.062Z,15.02
2023-04-15T02:44:58.459Z,22.83
2023-04-15T02:47:24.873Z,16.17
2023-04-15T02:49:51.243Z,8.73
2023-04-15T02:52:17.609Z,11.30
2023-04-15T02:54:43.942Z,11.02
2023-04-15T02:57:11.614Z,16.08
2023-04-15T02:59:38.848Z,9.80
2023-04-15T03:02:07.810Z,10.48
2023-04-15T03:04:34.282Z,14.68
2023-04-15T03:07:01.758Z,9.45
2023-04-15T03:09:28.061Z,12.25
2023-04-15T03:11:54.861Z,10.48
2023-04-15T03:14:21.276Z,10.50
2023-04-15T03:16:47.508Z,8.93
2023-04-15T03:19:13.986Z,9.38
2023-04-15T03:21:40.361Z,14.57
2023-04-15T03:24:06.861Z,9.93
2023-04-15T03:26:33.168Z,8.80
2023-04-15T03:28:59.865Z,17.60
2023-04-15T03:31:26.547Z,11.07
2023-04-15T03:33:52.913Z,14.38
2023-04-15T03:36:19.229Z,13.23
2023-04-15T03:38:45.711Z,9.80
2023-04-15T03:41:12.298Z,11.05
2023-04-15T03:43:38.674Z,10.45
2023-04-15T03:46:05.010Z,11.55
2023-04-15T03:48:31.370Z,9.48
2023-04-15T03:50:57.633Z,10.52
2023-04-15T03:53:24.017Z,10.68
2023-04-15T03:55:50.578Z,12.43
2023-04-15T03:58:16.848Z,13.00
2023-04-15T04:00:43.232Z,9.38
2023-04-15T04:03:09.809Z,10.38
2023-04-15T04:05:41.306Z,17.77
2023-04-15T04:08:07.652Z,10.30
2023-04-15T04:10:34.057Z,6.63
2023-04-15T04:13:00.617Z,7.82
2023-04-15T04:15:27.191Z,9.00
2023-04-15T04:17:53.566Z,10.85
2023-04-15T04:20:19.975Z,7.75
2023-04-15T04:22:46.285Z,10.70
2023-04-15T04:25:12.629Z,9.30
2023-04-15T04:27:38.963Z,8.68
2023-04-15T04:30:06.658Z,13.23
2023-04-15T04:32:32.942Z,9.85
2023-04-15T04:34:59.291Z,16.55
2023-04-15T04:37:25.673Z,7.40
2023-04-15T04:39:51.977Z,7.95
2023-04-15T04:42:18.276Z,7.97
2023-04-15T04:44:44.751Z,9.43
2023-04-15T04:47:11.520Z,9.00
2023-04-15T04:49:38.112Z,11.90
2023-04-15T04:52:04.481Z,11.85
2023-04-15T04:54:31.683Z,9.82
2023-04-15T04:56:57.993Z,17.73
2023-04-15T04:59:24.456Z,8.88
2023-04-15T05:01:51.307Z,17.05
2023-04-15T05:04:17.618Z,11.38
2023-04-15T05:06:44.208Z,20.35
2023-04-15T05:09:10.588Z,9.98
2023-04-15T05:11:37.005Z,14.90
2023-04-15T05:14:03.331Z,8.27
2023-04-15T05:16:29.603Z,8.40
2023-04-15T05:18:55.892Z,9.65
2023-04-15T05:21:22.170Z,10.85
2023-04-15T05:23:48.475Z,8.90
2023-04-15T05:26:14.748Z,8.57
2023-04-15T05:28:41.330Z,10.27
2023-04-15T05:31:07.982Z,11.38
2023-04-15T05:33:34.426Z,13.55
2023-04-15T05:36:00.668Z,13.02
2023-04-15T05:38:27.104Z,11.25
2023-04-15T05:40:53.471Z,12.80
2023-04-15T05:43:19.893Z,14.27
2023-04-15T05:45:46.701Z,13.27
2023-04-15T05:48:13.086Z,11.05
2023-04-15T05:50:42.327Z,11.63
2023-04-15T05:53:08.927Z,13.70
2023-04-15T05:55:35.220Z,12.05
2023-04-15T05:58:01.658Z,14.43
2023-04-15T06:00:27.896Z,11.77
2023-04-15T06:02:54.817Z,14.80
2023-04-15T06:05:21.165Z,12.57
2023-04-15T06:07:48.609Z,12.85
2023-04-15T06:10:15.099Z,11.35
2023-04-15T06:12:41.552Z,15.95
2023-04-15T06:15:10.271Z,10.93
2023-04-15T06:17:37.044Z,15.85
2023-04-15T06:20:03.641Z,16.58
2023-04-15T06:22:29.924Z,15.50
2023-04-15T06:24:56.483Z,11.82
2023-04-15T06:27:23.136Z,13.43
2023-04-15T06:29:49.494Z,12.18
2023-04-15T06:32:16.280Z,16.52
2023-04-15T06:34:42.584Z,15.73
2023-04-15T06:37:11.066Z,12.55
2023-04-15T06:39:37.674Z,12.20
2023-04-15T06:42:04.099Z,18.45
2023-04-15T06:44:32.045Z,11.98
2023-04-15T06:46:59.654Z,18.13
2023-04-15T06:49:26.632Z,15.27
2023-04-15T06:51:52.945Z,16.13
2023-04-15T06:54:19.557Z,14.45
2023-04-15T06:56:46.171Z,19.67
2023-04-15T06:59:12.914Z,16.23
2023-04-15T07:01:39.184Z,22.50
2023-04-15T07:04:05.584Z,16.85
2023-04-15T07:06:32.698Z,17.45
2023-04-15T07:08:59.411Z,18.35
2023-04-15T07:11:26.301Z,17.70
2023-04-15T07:13:52.638Z,16.30
2023-04-15T07:16:19.243Z,20.42
2023-04-15T07:18:45.622Z,14.15
2023-04-15T07:21:11.940Z,14.10
2023-04-15T07:23:38.213Z,14.82
2023-04-15T07:26:04.599Z,16.42
2023-04-15T07:28:31.560Z,14.80
2023-04-15T07:30:57.921Z,18.75
2023-04-15T07:33:24.200Z,13.00
2023-04-15T07:35:50.545Z,15.57
2023-04-15T07:38:16.799Z,15.40
2023-04-15T07:40:43.205Z,13.50
2023-04-15T07:43:09.931Z,15.60
2023-04-15T07:45:36.355Z,13.40
2023-04-15T07:48:02.960Z,13.00
2023-04-15T07:50:29.256Z,14.20
2023-04-15T07:52:55.850Z,12.30
2023-04-15T07:55:23.431Z,10.05
2023-04-15T07:57:50.344Z,18.73
2023-04-15T08:00:16.962Z,11.15
2023-04-15T08:02:43.602Z,10.43
2023-04-15T08:05:10.715Z,12.32
2023-04-15T08:07:38.360Z,11.18
2023-04-15T08:10:04.878Z,10.60
2023-04-15T08:12:31.628Z,14.63
2023-04-15T08:14:57.962Z,12.05
2023-04-15T08:17:24.475Z,9.77
2023-04-15T08:19:50.799Z,9.00
2023-04-15T08:22:18.502Z,10.43
2023-04-15T08:24:45.755Z,6.68
2023-04-15T08:27:12.104Z,8.82
2023-04-15T08:29:38.479Z,9.07
2023-04-15T08:32:06.761Z,7.38
2023-04-15T08:34:33.141Z,7.97
2023-04-15T08:36:59.441Z,10.15
2023-04-15T08:39:26.015Z,5.18
2023-04-15T08:41:54.991Z,5.88
2023-04-15T08:44:22.780Z,6.72
2023-04-15T08:49:17.710Z,7.57
2023-04-15T08:51:45.141Z,5.00
2023-04-15T08:54:11.947Z,4.22
2023-04-15T08:56:38.993Z,4.93
2023-04-15T08:59:05.521Z,3.40
2023-04-15T09:01:32.214Z,3.47
2023-04-15T09:03:59.319Z,3.30
2023-04-15T09:06:26.062Z,6.38
2023-04-15T09:08:52.852Z,3.92
2023-04-15T09:11:20.220Z,5.70
2023-04-15T09:13:46.864Z,4.35
2023-04-15T09:16:13.775Z,3.65
2023-04-15T09:18:40.197Z,5.30
2023-04-15T09:21:11.442Z,4.72
2023-04-15T09:23:38.902Z,10.90
2023-04-15T09:26:05.637Z,6.88
2023-04-15T09:28:32.266Z,4.65
2023-04-15T09:30:59.111Z,4.68
2023-04-15T09:33:29.267Z,4.63
2023-04-15T09:35:58.968Z,9.48
2023-04-15T09:38:25.687Z,5.67
2023-04-15T09:40:52.211Z,5.30
2023-04-15T09:43:18.511Z,3.92
2023-04-15T09:45:49.070Z,4.28
2023-04-15T09:48:16.922Z,3.58
2023-04-15T09:50:43.928Z,3.30
2023-04-15T09:53:11.888Z,4.28
2023-04-15T09:55:38.400Z,3.38
2023-04-15T09:58:08.809Z,4.05
2023-04-15T10:03:02.108Z,4.75
2023-04-15T10:05:29.857Z,5.15
2023-04-15T10:07:57.485Z,8.13
2023-04-15T10:10:24.040Z,6.40
2023-04-15T10:12:52.003Z,5.20
2023-04-15T10:15:18.724Z,5.20
2023-04-15T10:17:45.458Z,6.93
2023-04-15T10:20:13.021Z,3.22
2023-04-15T10:22:41.096Z,5.25
2023-04-15T10:25:07.763Z,3.45
2023-04-15T10:27:34.204Z,2.92
2023-04-15T10:30:00.742Z,4.43
2023-04-15T10:32:27.198Z,3.28
2023-04-15T10:34:54.741Z,2.83
2023-04-15T10:37:22.361Z,6.90
2023-04-15T10:39:49.053Z,9.02
2023-04-15T10:42:16.242Z,5.97
2023-04-15T10:44:43.784Z,4.28
2023-04-15T10:47:14.384Z,4.35
2023-04-15T10:50:00.275Z,5.10
2023-04-15T10:52:27.625Z,2.95
2023-04-15T10:55:04.515Z,3.28
2023-04-15T10:57:40.362Z,3.08
2023-04-15T11:00:11.572Z,5.15
2023-04-15T11:02:54.972Z,4.60
2023-04-15T11:05:21.870Z,10.43
2023-04-15T11:07:54.674Z,3.17
2023-04-15T11:10:21.114Z,2.63
2023-04-15T11:12:50.815Z,3.65
2023-04-15T11:15:32.076Z,3.67
2023-04-15T11:17:59.161Z,2.67
2023-04-15T11:20:25.907Z,3.28
2023-04-15T11:22:53.246Z,2.58
2023-04-15T11:25:39.504Z,3.55
2023-04-15T11:28:06.132Z,4.95
2023-04-15T11:30:33.453Z,2.35
2023-04-15T11:33:01.307Z,2.90
2023-04-15T11:35:28.488Z,2.45
2023-04-15T11:37:55.713Z,2.97
2023-04-15T11:40:25.678Z,3.53
2023-04-15T11:43:24.518Z,3.65
2023-04-15T11:45:55.896Z,2.97
2023-04-15T11:48:23.258Z,7.43
2023-04-15T11:51:06.364Z,3.47
2023-04-15T11:53:40.951Z,9.45
2023-04-15T11:56:08.653Z,1.88
2023-04-15T11:58:37.415Z,2.53
2023-04-15T12:01:04.564Z,2.65
2023-04-15T12:03:33.050Z,4.68
2023-04-15T12:06:13.161Z,4.07
2023-04-15T12:08:49.058Z,4.68
2023-04-15T12:11:27.366Z,4.68
2023-04-15T12:13:55.504Z,6.75
2023-04-15T12:16:22.168Z,6.85
2023-04-15T12:18:52.135Z,4.93
2023-04-15T12:21:29.091Z,2.72
2023-04-15T12:23:56.480Z,2.50
2023-04-15T12:26:27.382Z,2.88
2023-04-15T12:28:54.338Z,2.92
2023-04-15T12:31:20.618Z,2.67
2023-04-15T12:33:48.272Z,3.40
2023-04-15T12:36:14.563Z,4.85
2023-04-15T12:38:40.817Z,4.82
2023-04-15T12:41:07.082Z,3.40
2023-04-15T12:43:33.422Z,1.67
2023-04-15T12:45:59.800Z,5.18
2023-04-15T12:48:26.295Z,4.93
2023-04-15T12:50:52.610Z,6.22
2023-04-15T12:53:18.867Z,2.58
2023-04-15T12:55:45.180Z,2.17
2023-04-15T12:58:11.997Z,4.00
2023-04-15T13:00:38.648Z,3.05
2023-04-15T13:03:06.908Z,3.55
2023-04-15T13:05:33.568Z,2.72
2023-04-15T13:08:00.176Z,5.03
2023-04-15T13:10:26.500Z,1.67
2023-04-15T13:12:53.710Z,3.58
2023-04-15T13:15:22.343Z,3.72
2023-04-15T13:17:49.120Z,2.92
2023-04-15T13:20:15.441Z,3.60
2023-04-15T13:22:41.746Z,6.03
2023-04-15T13:25:08.632Z,2.97
2023-04-15T13:27:34.867Z,4.85
2023-04-15T13:30:01.205Z,3.50
2023-04-15T13:32:27.525Z,5.68
2023-04-15T13:34:54.735Z,6.35
2023-04-15T13:37:20.963Z,2.22
2023-04-15T13:39:47.249Z,4.35
2023-04-15T13:42:13.535Z,1.65
2023-04-15T13:44:40.038Z,7.28
2023-04-15T13:47:06.727Z,4.55
2023-04-15T13:49:33.026Z,2.10
2023-04-15T13:51:59.346Z,1.48
2023-04-15T13:54:25.654Z,7.03
2023-04-15T13:57:04.754Z,4.25
2023-04-15T13:59:31.210Z,2.83
2023-04-15T14:01:57.523Z,3.63
2023-04-15T14:04:24.037Z,3.92
2023-04-15T14:06:50.827Z,4.18
2023-04-15T14:09:17.060Z,3.00
2023-04-15T14:11:43.330Z,2.28
2023-04-15T14:14:09.622Z,3.78
2023-04-15T14:16:36.219Z,4.28
2023-04-15T14:19:02.790Z,3.95
2023-04-15T14:21:30.036Z,2.83
2023-04-15T14:23:56.377Z,8.10
2023-04-15T14:26:22.632Z,4.90
2023-04-15T14:28:48.998Z,4.22
2023-04-15T14:31:15.329Z,4.40
2023-04-15T14:33:41.700Z,6.55
2023-04-15T14:36:09.031Z,4.38
2023-04-15T14:38:39.728Z,6.95
2023-04-15T14:41:06.386Z,6.63
2023-04-15T14:43:34.236Z,6.93
2023-04-15T14:46:00.746Z,4.00
2023-04-15T14:48:27.043Z,4.18
2023-04-15T14:50:53.713Z,8.18
2023-04-15T14:53:20.084Z,5.72
2023-04-15T14:55:46.379Z,4.30
2023-04-15T14:58:12.645Z,4.20
2023-04-15T15:00:41.893Z,5.68
2023-04-15T15:03:12.877Z,12.50
2023-04-15T15:05:40.476Z,4.00
2023-04-15T15:08:08.045Z,5.05
2023-04-15T15:10:48.288Z,7.95
2023-04-15T15:13:16.608Z,11.75
2023-04-15T15:15:42.865Z,8.55
2023-04-15T15:18:10.016Z,8.63
2023-04-15T15:20:36.415Z,5.32
2023-04-15T15:23:02.733Z,6.20
2023-04-15T15:25:29.020Z,5.57
2023-04-15T15:27:56.100Z,9.52
2023-04-15T15:30:22.357Z,14.88
2023-04-15T15:32:49.059Z,7.63
2023-04-15T15:35:15.460Z,7.45
2023-04-15T15:37:42.288Z,3.88
2023-04-15T15:40:08.806Z,8.70
2023-04-15T15:42:35.224Z,7.03
2023-04-15T15:45:03.034Z,6.93
2023-04-15T15:47:29.318Z,5.68
2023-04-15T15:49:55.656Z,15.27
2023-04-15T15:52:21.995Z,11.65
2023-04-15T15:54:48.332Z,7.50
2023-04-15T15:57:14.586Z,7.47
2023-04-15T15:59:43.763Z,9.40
2023-04-15T16:02:10.736Z,7.65
2023-04-15T16:04:37.452Z,8.90
2023-04-15T16:07:04.388Z,8.93
2023-04-15T16:09:31.224Z,6.10
2023-04-15T16:11:57.729Z,13.15
2023-04-15T16:14:25.021Z,8.48
2023-04-15T16:16:51.741Z,8.80
2023-04-15T16:19:18.070Z,8.00
2023-04-15T16:21:44.900Z,10.93
2023-04-15T16:24:11.370Z,12.50
2023-04-15T16:26:37.658Z,9.98
2023-04-15T16:29:04.289Z,8.02
2023-04-15T16:31:31.149Z,9.73
2023-04-15T16:33:57.598Z,8.98
2023-04-15T16:36:23.861Z,9.73
2023-04-15T16:38:50.203Z,4.13
2023-04-15T16:41:16.486Z,16.52
2023-04-15T16:43:42.802Z,6.40
2023-04-15T16:46:09.145Z,6.97
2023-04-15T16:48:35.444Z,8.32
2023-04-15T16:51:01.743Z,8.25
2023-04-15T16:53:28.023Z,7.13
2023-04-15T16:55:54.250Z,9.88
2023-04-15T16:58:20.567Z,10.48
2023-04-15T17:00:47.047Z,11.60
2023-04-15T17:03:13.440Z,7.90
2023-04-15T17:05:39.911Z,6.70
2023-04-15T17:08:06.389Z,6.85
2023-04-15T17:10:32.670Z,7.40
2023-04-15T17:12:58.964Z,5.50
2023-04-15T17:15:25.939Z,7.18
2023-04-15T17:17:52.360Z,10.98
2023-04-15T17:20:18.774Z,6.85
2023-04-15T17:22:45.511Z,9.57
2023-04-15T17:25:12.887Z,5.88
2023-04-15T17:27:39.172Z,12.90
2023-04-15T17:30:06.525Z,9.18
2023-04-15T17:32:34.462Z,8.55
2023-04-15T17:35:02.563Z,11.75
2023-04-15T17:37:28.780Z,10.98
2023-04-15T17:39:55.092Z,19.38
2023-04-15T17:42:22.839Z,14.63
2023-04-15T17:44:49.341Z,13.27
2023-04-15T17:47:15.618Z,15.20
2023-04-15T17:49:41.937Z,7.13
2023-04-15T17:52:08.220Z,15.20
2023-04-15T17:54:34.680Z,6.03
2023-04-15T17:57:03.050Z,7.40
2023-04-15T17:59:29.351Z,8.55
2023-04-15T18:01:55.784Z,8.82
2023-04-15T18:04:24.843Z,11.52
2023-04-15T18:06:52.687Z,15.68
2023-04-15T18:09:19.077Z,10.05
2023-04-15T18:11:47.280Z,15.75
2023-04-15T18:14:15.676Z,9.63
2023-04-15T18:16:49.818Z,15.63
2023-04-15T18:19:16.428Z,9.30
2023-04-15T18:21:42.715Z,12.60
2023-04-15T18:24:09.004Z,8.60
2023-04-15T18:26:35.328Z,4.82
2023-04-15T18:29:01.616Z,12.20
2023-04-15T18:31:28.008Z,12.90
2023-04-15T18:33:54.296Z,10.32
2023-04-15T18:36:20.676Z,8.77
2023-04-15T18:38:46.977Z,9.70
2023-04-15T18:41:13.797Z,10.82
2023-04-15T18:43:40.058Z,9.00
2023-04-15T18:46:10.065Z,11.73
2023-04-15T18:48:36.335Z,10.60
2023-04-15T18:51:02.635Z,5.78
2023-04-15T18:53:28.932Z,8.90
2023-04-15T18:55:56.322Z,11.75
2023-04-15T18:58:22.652Z,12.25
2023-04-15T19:00:48.935Z,7.88
2023-04-15T19:03:15.531Z,5.97
2023-04-15T19:05:41.913Z,9.23
2023-04-15T19:08:08.184Z,7.70
2023-04-15T19:10:34.568Z,13.65
2023-04-15T19:13:01.039Z,11.48
2023-04-15T19:15:27.325Z,6.47
2023-04-15T19:17:53.564Z,10.52
2023-04-15T19:20:19.824Z,6.72
2023-04-15T19:22:46.191Z,5.47
2023-04-15T19:25:12.557Z,6.20
2023-04-15T19:27:38.813Z,3.90
2023-04-15T19:30:06.312Z,11.30
2023-04-15T19:32:32.713Z,9.13
2023-04-15T19:34:59.074Z,10.07
2023-04-15T19:37:25.503Z,7.75
2023-04-15T19:39:51.785Z,11.80
2023-04-15T19:42:18.085Z,9.15
2023-04-15T19:44:44.365Z,11.40
2023-04-15T19:47:10.994Z,8.70
2023-04-15T19:49:37.734Z,7.63
2023-04-15T19:52:04.620Z,13.85
2023-04-15T19:54:32.290Z,7.55
2023-04-15T19:56:58.960Z,7.80
2023-04-15T19:59:25.171Z,11.43
2023-04-15T20:01:52.181Z,4.78
2023-04-15T20:04:18.600Z,15.63
2023-04-15T20:06:44.933Z,9.73
2023-04-15T20:09:11.598Z,11.13
2023-04-15T20:12:46.214Z,13.52
2023-04-15T20:14:25.044Z,13.98
2023-04-15T20:16:51.280Z,7.60
2023-04-15T20:19:17.596Z,11.70
2023-04-15T20:21:43.971Z,13.18
2023-04-15T20:24:10.740Z,14.80
2023-04-15T20:26:37.010Z,12.45
2023-04-15T20:29:03.600Z,10.82
2023-04-15T20:31:30.213Z,10.50
2023-04-15T20:33:57.040Z,14.07
2023-04-15T20:36:23.379Z,5.88
2023-04-15T20:38:49.612Z,9.18
2023-04-15T20:41:16.025Z,11.43
2023-04-15T20:43:42.287Z,7.88
2023-04-15T20:46:19.792Z,9.63
2023-04-15T20:48:47.045Z,8.15
2023-04-15T20:51:13.330Z,13.25
2023-04-15T20:53:41.713Z,14.63
2023-04-15T20:56:08.010Z,12.93
2023-04-15T20:58:34.294Z,16.88
2023-04-15T21:01:02.158Z,19.40
2023-04-15T21:03:28.785Z,17.23
2023-04-15T21:05:55.340Z,17.10
2023-04-15T21:08:29.006Z,14.10
2023-04-15T21:10:55.972Z,14.88
2023-04-15T21:13:22.665Z,8.73
2023-04-15T21:15:53.082Z,14.23
2023-04-15T21:18:20.058Z,14.02
2023-04-15T21:20:46.405Z,11.02
2023-04-15T21:23:13.137Z,11.88
2023-04-15T21:25:39.591Z,16.77
2023-04-15T21:28:06.106Z,18.58
2023-04-15T21:30:32.425Z,12.77
2023-04-15T21:32:58.729Z,9.75
2023-04-15T21:35:25.031Z,8.35
2023-04-15T21:37:51.341Z,14.73
2023-04-15T21:40:19.347Z,7.45
2023-04-15T21:42:45.751Z,7.05
2023-04-15T21:45:12.022Z,7.30
2023-04-15T21:48:04.456Z,9.93
2023-04-15T21:50:24.791Z,10.88
2023-04-15T21:52:51.087Z,8.35
2023-04-15T21:55:18.068Z,9.20
2023-04-15T21:57:44.330Z,9.23
2023-04-15T22:00:11.465Z,7.68
2023-04-15T22:02:38.337Z,6.10
2023-04-15T22:05:05.432Z,9.15
2023-04-15T22:07:31.759Z,8.32
2023-04-15T22:09:58.083Z,11.07
2023-04-15T22:12:24.358Z,5.85
2023-04-15T22:14:51.030Z,8.75
2023-04-15T22:17:17.333Z,14.20
2023-04-15T22:19:45.153Z,9.27
2023-04-15T22:22:11.499Z,9.88
2023-04-15T22:24:40.451Z,5.28
2023-04-15T22:27:06.909Z,6.82
2023-04-15T22:29:33.205Z,7.65
2023-04-15T22:31:59.500Z,14.85
2023-04-15T22:34:25.782Z,9.63
2023-04-15T22:36:52.334Z,9.32
2023-04-15T22:39:19.138Z,7.75
2023-04-15T22:41:45.990Z,16.77
2023-04-15T22:44:12.372Z,12.65
2023-04-15T22:46:38.712Z,6.40
2023-04-15T22:49:08.790Z,7.07
2023-04-15T22:51:36.064Z,11.32
2023-04-15T22:54:02.650Z,14.68
2023-04-15T22:56:28.986Z,15.32
2023-04-15T22:58:55.343Z,21.63
2023-04-15T23:01:21.725Z,12.57
2023-04-15T23:03:58.539Z,19.60
2023-04-15T23:06:32.390Z,13.20
2023-04-15T23:08:58.721Z,14.50
2023-04-15T23:11:25.022Z,17.27
2023-04-15T23:13:51.476Z,14.35
2023-04-15T23:16:17.823Z,13.80
2023-04-15T23:18:44.177Z,13.38
2023-04-15T23:21:10.421Z,13.90
2023-04-15T23:23:36.770Z,13.63
2023-04-15T23:26:03.966Z,13.15
2023-04-15T23:28:30.805Z,14.43
2023-04-15T23:30:59.803Z,18.20
2023-04-15T23:33:26.832Z,20.87
2023-04-15T23:35:53.166Z,13.68
2023-04-15T23:38:19.461Z,16.00
2023-04-15T23:40:45.918Z,18.10
2023-04-15T23:43:12.168Z,17.17
2023-04-15T23:45:38.478Z,12.07
2023-04-15T23:48:06.137Z,10.23
2023-04-15T23:50:32.417Z,14.98
2023-04-15T23:52:58.732Z,14.57
2023-04-15T23:55:24.989Z,18.40
2023-04-15T23:57:51.278Z,12.40
